sensor_id;sensor_type;location;lat;lon;timestamp;pressure;altitude;pressure_sealevel;temperature;humidity
26839;BME280;40088;51.214;6.786;2024-03-02T00:02:17;99766.25;;;15.26;56.98
26839;BME280;40088;51.214;6.786;2024-03-02T00:12:18;99756.09;;;15.27;56.77
26839;BME280;40088;51.214;6.786;2024-03-02T00:22:18;99740.47;;;15.27;56.99
26839;BME280;40088;51.214;6.786;2024-03-02T00:32:18;99730.56;;;15.26;57.01
26839;BME280;40088;51.214;6.786;2024-03-02T00:42:19;99728.66;;;15.27;56.91
26839;BME280;40088;51.214;6.786;2024-03-02T00:52:19;99737.75;;;15.27;56.93
26839;BME280;40088;51.214;6.786;2024-03-02T01:02:19;99742.38;;;15.27;56.86
26839;BME280;40088;51.214;6.786;2024-03-02T01:12:20;99754.22;;;15.27;56.90
26839;BME280;40088;51.214;6.786;2024-03-02T01:22:20;99760.53;;;15.28;56.88
26839;BME280;40088;51.214;6.786;2024-03-02T01:32:25;99751.69;;;15.26;56.85
26839;BME280;40088;51.214;6.786;2024-03-02T01:42:26;99739.84;;;15.25;56.80
26839;BME280;40088;51.214;6.786;2024-03-02T01:52:27;99726.97;;;15.26;57.01
26839;BME280;40088;51.214;6.786;2024-03-02T02:02:27;99745.13;;;15.27;56.91
26839;BME280;40088;51.214;6.786;2024-03-02T02:12:27;99747.03;;;15.26;57.04
26839;BME280;40088;51.214;6.786;2024-03-02T02:22:28;99743.44;;;15.26;57.08
26839;BME280;40088;51.214;6.786;2024-03-02T02:32:28;99758.84;;;15.27;57.10
26839;BME280;40088;51.214;6.786;2024-03-02T02:42:28;99751.47;;;15.27;56.81
26839;BME280;40088;51.214;6.786;2024-03-02T02:52:36;99739.84;;;15.25;57.09
26839;BME280;40088;51.214;6.786;2024-03-02T03:02:37;99735.22;;;15.26;57.01
26839;BME280;40088;51.214;6.786;2024-03-02T03:12:38;99732.47;;;15.26;57.08
26839;BME280;40088;51.214;6.786;2024-03-02T03:22:40;99745.34;;;15.25;56.86
26839;BME280;40088;51.214;6.786;2024-03-02T03:32:41;99757.16;;;15.26;56.88
26839;BME280;40088;51.214;6.786;2024-03-02T03:42:41;99754.44;;;15.26;56.79
26839;BME280;40088;51.214;6.786;2024-03-02T03:52:41;99747.88;;;15.27;57.32
26839;BME280;40088;51.214;6.786;2024-03-02T04:02:42;99748.94;;;15.26;56.99
26839;BME280;40088;51.214;6.786;2024-03-02T04:12:42;99765.59;;;15.24;57.03
26839;BME280;40088;51.214;6.786;2024-03-02T04:22:42;99747.25;;;15.25;56.64
26839;BME280;40088;51.214;6.786;2024-03-02T04:32:43;99749.13;;;15.24;57.02
26839;BME280;40088;51.214;6.786;2024-03-02T04:42:46;99766.47;;;15.25;57.03
26839;BME280;40088;51.214;6.786;2024-03-02T04:52:46;99765.59;;;15.24;57.01
26839;BME280;40088;51.214;6.786;2024-03-02T05:02:47;99760.97;;;15.25;56.80
26839;BME280;40088;51.214;6.786;2024-03-02T05:12:47;99760.09;;;15.24;56.84
26839;BME280;40088;51.214;6.786;2024-03-02T05:22:56;99767.31;;;15.25;56.83
26839;BME280;40088;51.214;6.786;2024-03-02T05:32:57;99781.03;;;15.25;56.99
26839;BME280;40088;51.214;6.786;2024-03-02T05:42:57;99783.78;;;15.25;57.03
26839;BME280;40088;51.214;6.786;2024-03-02T05:52:57;99779.31;;;15.24;56.93
26839;BME280;40088;51.214;6.786;2024-03-02T06:02:58;99790.28;;;15.24;56.88
26839;BME280;40088;51.214;6.786;2024-03-02T06:12:59;99807.63;;;15.25;56.94
26839;BME280;40088;51.214;6.786;2024-03-02T06:22:59;99815.88;;;15.25;56.80
26839;BME280;40088;51.214;6.786;2024-03-02T06:32:59;99818.59;;;15.25;56.92
26839;BME280;40088;51.214;6.786;2024-03-02T06:43:00;99832.34;;;15.25;56.70
26839;BME280;40088;51.214;6.786;2024-03-02T06:53:00;99830.63;;;15.24;56.80
26839;BME280;40088;51.214;6.786;2024-03-02T07:03:00;99835.06;;;15.25;56.86
26839;BME280;40088;51.214;6.786;2024-03-02T07:13:00;99839.69;;;15.24;56.67
26839;BME280;40088;51.214;6.786;2024-03-02T07:23:01;99873.50;;;15.25;56.89
26839;BME280;40088;51.214;6.786;2024-03-02T07:33:01;99866.28;;;15.24;56.87
26839;BME280;40088;51.214;6.786;2024-03-02T07:43:01;99861.66;;;15.24;57.09
26839;BME280;40088;51.214;6.786;2024-03-02T07:53:02;99880.00;;;15.24;56.72
26839;BME280;40088;51.214;6.786;2024-03-02T08:03:03;99901.97;;;15.24;56.92
26839;BME280;40088;51.214;6.786;2024-03-02T08:13:03;99909.19;;;15.25;56.76
26839;BME280;40088;51.214;6.786;2024-03-02T08:23:04;99909.19;;;15.25;56.94
26839;BME280;40088;51.214;6.786;2024-03-02T08:33:05;99906.44;;;15.25;56.85
26839;BME280;40088;51.214;6.786;2024-03-02T08:43:06;99906.44;;;15.25;56.77
26839;BME280;40088;51.214;6.786;2024-03-02T08:53:06;99903.88;;;15.23;56.79
26839;BME280;40088;51.214;6.786;2024-03-02T09:03:07;99918.44;;;15.24;56.79
26839;BME280;40088;51.214;6.786;2024-03-02T09:13:07;99913.78;;;15.24;56.64
26839;BME280;40088;51.214;6.786;2024-03-02T09:23:08;99918.44;;;15.24;56.52
26839;BME280;40088;51.214;6.786;2024-03-02T09:33:08;99920.16;;;15.25;56.72
26839;BME280;40088;51.214;6.786;2024-03-02T09:43:08;99911.03;;;15.24;56.79
26839;BME280;40088;51.214;6.786;2024-03-02T09:53:10;99902.81;;;15.24;56.92
26839;BME280;40088;51.214;6.786;2024-03-02T10:03:12;99912.75;;;15.25;56.85
26839;BME280;40088;51.214;6.786;2024-03-02T10:13:13;99903.69;;;15.25;56.77
26839;BME280;40088;51.214;6.786;2024-03-02T10:23:15;99898.19;;;15.25;56.89
26839;BME280;40088;51.214;6.786;2024-03-02T10:33:17;99910.03;;;15.25;56.96
26839;BME280;40088;51.214;6.786;2024-03-02T10:43:18;99895.44;;;15.25;56.91
26839;BME280;40088;51.214;6.786;2024-03-02T10:53:19;99890.81;;;15.25;57.09
26839;BME280;40088;51.214;6.786;2024-03-02T11:03:20;99877.09;;;15.25;57.03
26839;BME280;40088;51.214;6.786;2024-03-02T11:13:34;99859.56;;;15.26;56.94
26839;BME280;40088;51.214;6.786;2024-03-02T11:23:34;99862.53;;;15.25;57.09
26839;BME280;40088;51.214;6.786;2024-03-02T11:33:38;99854.06;;;15.26;57.00
26839;BME280;40088;51.214;6.786;2024-03-02T11:43:38;99861.47;;;15.26;57.31
26839;BME280;40088;51.214;6.786;2024-03-02T11:53:41;99838.66;;;15.25;57.24
26839;BME280;40088;51.214;6.786;2024-03-02T12:03:43;99829.38;;;15.26;57.15
26839;BME280;40088;51.214;6.786;2024-03-02T12:13:51;99820.28;;;15.26;57.06
26839;BME280;40088;51.214;6.786;2024-03-02T12:23:52;99796.44;;;15.26;57.18
26839;BME280;40088;51.214;6.786;2024-03-02T12:33:54;99789.03;;;15.27;57.22
26839;BME280;40088;51.214;6.786;2024-03-02T12:43:54;99781.66;;;15.27;57.31
26839;BME280;40088;51.214;6.786;2024-03-02T12:53:55;99758.00;;;15.26;57.17
26839;BME280;40088;51.214;6.786;2024-03-02T13:03:58;99752.53;;;15.26;57.29
26839;BME280;40088;51.214;6.786;2024-03-02T13:14:00;99765.19;;;15.27;56.98
26839;BME280;40088;51.214;6.786;2024-03-02T13:24:00;99765.19;;;15.27;57.46
26839;BME280;40088;51.214;6.786;2024-03-02T13:34:01;99753.38;;;15.27;57.26
26839;BME280;40088;51.214;6.786;2024-03-02T13:44:01;99749.56;;;15.28;57.23
26839;BME280;40088;51.214;6.786;2024-03-02T13:54:01;99736.69;;;15.28;57.37
26839;BME280;40088;51.214;6.786;2024-03-02T14:04:03;99727.59;;;15.28;57.42
26839;BME280;40088;51.214;6.786;2024-03-02T14:14:04;99722.13;;;15.28;57.39
26839;BME280;40088;51.214;6.786;2024-03-02T14:24:04;99711.97;;;15.28;57.49
26839;BME280;40088;51.214;6.786;2024-03-02T14:34:04;99717.25;;;15.30;57.58
26839;BME280;40088;51.214;6.786;2024-03-02T14:44:05;99714.50;;;15.30;57.56
26839;BME280;40088;51.214;6.786;2024-03-02T14:54:05;99709.00;;;15.30;57.60
26839;BME280;40088;51.214;6.786;2024-03-02T15:04:06;99701.84;;;15.29;57.75
26839;BME280;40088;51.214;6.786;2024-03-02T15:14:06;99696.16;;;15.30;57.77
26839;BME280;40088;51.214;6.786;2024-03-02T15:24:07;99695.09;;;15.31;57.61
26839;BME280;40088;51.214;6.786;2024-03-02T15:34:07;99681.56;;;15.30;57.95
26839;BME280;40088;51.214;6.786;2024-03-02T15:44:08;99683.28;;;15.31;57.72
26839;BME280;40088;51.214;6.786;2024-03-02T15:54:08;99683.28;;;15.31;57.70
26839;BME280;40088;51.214;6.786;2024-03-02T16:04:09;99682.22;;;15.32;57.84
26839;BME280;40088;51.214;6.786;2024-03-02T16:14:09;99675.03;;;15.31;57.92
26839;BME280;40088;51.214;6.786;2024-03-02T16:24:09;99664.91;;;15.31;57.63
26839;BME280;40088;51.214;6.786;2024-03-02T16:34:10;99668.50;;;15.32;57.99
26839;BME280;40088;51.214;6.786;2024-03-02T16:44:10;99675.03;;;15.31;57.98
26839;BME280;40088;51.214;6.786;2024-03-02T16:54:11;99676.72;;;15.32;57.82
26839;BME280;40088;51.214;6.786;2024-03-02T17:04:12;99682.22;;;15.32;58.09
26839;BME280;40088;51.214;6.786;2024-03-02T17:14:22;99692.13;;;15.33;57.81
26839;BME280;40088;51.214;6.786;2024-03-02T17:24:22;99698.69;;;15.32;57.84
26839;BME280;40088;51.214;6.786;2024-03-02T17:34:23;99704.19;;;15.32;57.99
26839;BME280;40088;51.214;6.786;2024-03-02T17:44:24;99726.97;;;15.32;57.79
26839;BME280;40088;51.214;6.786;2024-03-02T17:54:24;99730.56;;;15.33;57.77
26839;BME280;40088;51.214;6.786;2024-03-02T18:04:24;99726.97;;;15.32;57.83
26839;BME280;40088;51.214;6.786;2024-03-02T18:14:24;99731.63;;;15.32;57.84
26839;BME280;40088;51.214;6.786;2024-03-02T18:24:25;99726.13;;;15.32;57.71
26839;BME280;40088;51.214;6.786;2024-03-02T18:34:28;99736.06;;;15.33;57.97
26839;BME280;40088;51.214;6.786;2024-03-02T18:44:28;99727.81;;;15.33;57.93
26839;BME280;40088;51.214;6.786;2024-03-02T18:54:28;99722.31;;;15.33;58.02
26839;BME280;40088;51.214;6.786;2024-03-02T19:04:29;99736.88;;;15.33;57.84
26839;BME280;40088;51.214;6.786;2024-03-02T19:14:29;99732.25;;;15.34;58.00
26839;BME280;40088;51.214;6.786;2024-03-02T19:24:29;99723.16;;;15.33;57.88
26839;BME280;40088;51.214;6.786;2024-03-02T19:34:29;99712.19;;;15.33;58.05
26839;BME280;40088;51.214;6.786;2024-03-02T19:44:30;99714.94;;;15.33;58.04
26839;BME280;40088;51.214;6.786;2024-03-02T19:54:32;99702.06;;;15.34;57.87
26839;BME280;40088;51.214;6.786;2024-03-02T20:04:33;99682.84;;;15.34;57.71
26839;BME280;40088;51.214;6.786;2024-03-02T20:14:33;99682.00;;;15.33;57.92
26839;BME280;40088;51.214;6.786;2024-03-02T20:24:34;99679.25;;;15.33;58.29
26839;BME280;40088;51.214;6.786;2024-03-02T20:34:34;99671.84;;;15.34;57.91
26839;BME280;40088;51.214;6.786;2024-03-02T20:44:34;99664.47;;;15.34;57.80
26839;BME280;40088;51.214;6.786;2024-03-02T20:54:35;99672.69;;;15.34;57.84
26839;BME280;40088;51.214;6.786;2024-03-02T21:04:36;99669.13;;;15.34;57.89
26839;BME280;40088;51.214;6.786;2024-03-02T21:14:37;99673.53;;;15.35;57.88
26839;BME280;40088;51.214;6.786;2024-03-02T21:24:39;99676.28;;;15.35;57.95
26839;BME280;40088;51.214;6.786;2024-03-02T21:34:42;99671.84;;;15.34;57.75
26839;BME280;40088;51.214;6.786;2024-03-02T21:44:43;99685.59;;;15.34;57.82
26839;BME280;40088;51.214;6.786;2024-03-02T21:54:43;99673.53;;;15.35;57.96
26839;BME280;40088;51.214;6.786;2024-03-02T22:04:43;99690.00;;;15.35;57.72
26839;BME280;40088;51.214;6.786;2024-03-02T22:14:44;99683.69;;;15.34;57.72
26839;BME280;40088;51.214;6.786;2024-03-02T22:24:44;99690.88;;;15.35;57.87
26839;BME280;40088;51.214;6.786;2024-03-02T22:34:44;99691.72;;;15.36;57.82
26839;BME280;40088;51.214;6.786;2024-03-02T22:44:44;99698.25;;;15.35;57.81
26839;BME280;40088;51.214;6.786;2024-03-02T22:54:45;99717.47;;;15.35;57.95
26839;BME280;40088;51.214;6.786;2024-03-02T23:04:45;99707.34;;;15.35;57.84
26839;BME280;40088;51.214;6.786;2024-03-02T23:14:46;99698.25;;;15.35;57.81
26839;BME280;40088;51.214;6.786;2024-03-02T23:24:46;99680.94;;;15.34;57.85
26839;BME280;40088;51.214;6.786;2024-03-02T23:34:48;99673.53;;;15.35;57.83
26839;BME280;40088;51.214;6.786;2024-03-02T23:44:48;99680.75;;;15.36;58.15
26839;BME280;40088;51.214;6.786;2024-03-02T23:54:48;99666.19;;;15.35;57.92
